Barfleur — FNIE — position and weather

sailwx.info

Track history (hours):
 
Tides and Currents Weather Stations Pressure Air Temp Water Temp Dewpoint Dewpoint Depression Visibility Wind Speed Wind Dir Waves Ship Positions

Barfleur

Operator: Brittany Ferries

Last reported at 2015-May-29 03:34 UTC. Time now 2015-May-29 04:17 UTC.
Position N 50°42' W 001°59'.

Length 158 m; draft 5 m.

Type: Passenger vessel. MMSI: 227289000.

Date/timePositionNaut miles runAvg speedWind from/ knotsBaromVisibWave heightAir tempDewpointWater temp
2015-May-29 03:34N 50°42' W 001°59'0 0.0
2015-May-29 02:34N 50°42' W 001°59'0 0.0
2015-May-29 01:34N 50°42' W 001°59'0 0.0
2015-May-29 00:34N 50°42' W 001°59'0 0.0
2015-May-28 23:33N 50°42' W 001°59'0 0.0
2015-May-28 22:34N 50°42' W 001°59'0 0.0
2015-May-28 21:33N 50°42' W 001°59'0 0.1
2015-May-28 20:33N 50°42' W 001°59'1211.9
2015-May-28 19:34N 50°32' W 001°51'3 0.2
2015-May-28 08:30N 50°30' W 001°53'1313.8
2015-May-28 07:33N 50°42' W 001°59'0 0.4
2015-May-28 06:33N 50°42' W 001°59'0 0.0
2015-May-28 05:33N 50°42' W 001°59'0 0.0
2015-May-28 04:33N 50°42' W 001°59'0 0.0
2015-May-28 03:33N 50°42' W 001°59'0 0.0
2015-May-28 02:34N 50°42' W 001°59'0 0.0
2015-May-28 01:33N 50°42' W 001°59'0 0.0
2015-May-28 00:33N 50°42' W 001°59'0 0.0
2015-May-27 23:33N 50°42' W 001°59'0 0.0
2015-May-27 22:33N 50°42' W 001°59'0 0.0
2015-May-27 21:34N 50°42' W 001°59'0 0.1
2015-May-27 20:33N 50°42' W 001°59'1111.2
2015-May-27 19:33N 50°33' W 001°50'49 5.9
2015-May-27 11:07N 49°44' W 001°36'1716.8
2015-May-27 10:06N 50°01' W 001°43'3218.4
2015-May-27 08:21N 50°32' W 001°52'1113.7
2015-May-27 07:33N 50°42' W 001°59'0 0.4
2015-May-27 06:33N 50°42' W 001°59'0 0.0
2015-May-27 05:33N 50°42' W 001°59'0 0.0
2015-May-27 04:33N 50°42' W 001°59'0 0.0
2015-May-27 03:33N 50°42' W 001°59'0 0.0
2015-May-27 02:33N 50°42' W 001°59'0 0.0
2015-May-27 01:33N 50°42' W 001°59'0 0.0
2015-May-27 00:33N 50°42' W 001°59'0 0.0
2015-May-26 23:33N 50°42' W 001°59'0 0.0
2015-May-26 22:33N 50°42' W 001°59'0 0.0
2015-May-26 21:33N 50°42' W 001°59'2 1.8
2015-May-26 20:33N 50°41' W 001°57'1615.9
2015-May-26 19:33N 50°26' W 001°50'3 0.3
2015-May-26 08:31N 50°29' W 001°51'1414.5
2015-May-26 07:34N 50°42' W 001°58'1 1.2
2015-May-26 06:34N 50°42' W 001°59'0 0.0
2015-May-26 05:34N 50°42' W 001°59'0 0.0
2015-May-26 04:33N 50°42' W 001°59'0 0.0
2015-May-26 03:34N 50°42' W 001°59'0 0.0
2015-May-26 02:33N 50°42' W 001°59'0 0.0
2015-May-26 01:34N 50°42' W 001°59'0 0.0
2015-May-26 00:34N 50°42' W 001°59'0 0.0
2015-May-25 23:34N 50°42' W 001°59'0 0.0
2015-May-25 22:34N 50°42' W 001°59'0 0.0
2015-May-25 21:34N 50°42' W 001°59'0 0.1
2015-May-25 20:34N 50°42' W 001°60'1211.6
2015-May-25 19:33N 50°32' W 001°50'2 0.2
2015-May-25 08:33N 50°33' W 001°53'1010.5
2015-May-25 07:33N 50°42' W 001°59'0 0.0
2015-May-25 06:33N 50°42' W 001°59'0 0.0
2015-May-25 05:33N 50°42' W 001°59'0 0.0
2015-May-25 04:33N 50°42' W 001°59'0 0.0
2015-May-25 03:33N 50°42' W 001°59'0 0.0
2015-May-25 02:33N 50°42' W 001°59'0 0.0
2015-May-25 01:33N 50°42' W 001°59'0 0.0
2015-May-25 00:33N 50°42' W 001°59'0 0.0
2015-May-24 23:33N 50°42' W 001°59'0 0.0
2015-May-24 22:33N 50°42' W 001°59'0 0.0
2015-May-24 21:33N 50°42' W 001°59'0 0.1
2015-May-24 20:33N 50°42' W 001°59'1111.3
2015-May-24 19:33N 50°32' W 001°51'21 2.1
2015-May-24 09:30N 50°12' W 001°49'1918.0
2015-May-24 08:25N 50°31' W 001°51'1214.1
2015-May-24 07:33N 50°42' W 001°58'1 0.9
2015-May-24 06:34N 50°42' W 001°59'0 0.0
2015-May-24 05:34N 50°42' W 001°59'0 0.0
2015-May-24 04:33N 50°42' W 001°59'0 0.0
2015-May-24 03:34N 50°42' W 001°59'0 0.0
2015-May-24 02:34N 50°42' W 001°59'0 0.0
2015-May-24 01:34N 50°42' W 001°59'0 0.0
2015-May-24 00:34N 50°42' W 001°59'0 0.0
2015-May-23 23:34N 50°42' W 001°59'0 0.0
2015-May-23 22:33N 50°42' W 001°59'0 0.0
2015-May-23 21:33N 50°42' W 001°59'0 0.0
2015-May-23 20:33N 50°42' W 001°59'1111.2
2015-May-23 19:33N 50°33' W 001°51'2518.9
2015-May-23 18:13N 50°08' W 001°47'27 2.8
2015-May-23 08:33N 50°34' W 001°53'9 9.5
2015-May-23 07:33N 50°42' W 001°59'0 0.0
2015-May-23 06:33N 50°42' W 001°59'0 0.0
2015-May-23 05:33N 50°42' W 001°59'0 0.0
2015-May-23 04:33N 50°42' W 001°59'0 0.0
2015-May-23 03:33N 50°42' W 001°59'0 0.0
2015-May-23 02:33N 50°42' W 001°59'0 0.0
2015-May-23 01:33N 50°42' W 001°59'0 0.0
2015-May-23 00:33N 50°42' W 001°59'0 0.0
2015-May-22 23:33N 50°42' W 001°59'0 0.0
2015-May-22 22:33N 50°42' W 001°59'0 0.0
2015-May-22 21:33N 50°42' W 001°59'0 0.0
2015-May-22 20:33N 50°42' W 001°60'1212.2
2015-May-22 19:33N 50°31' W 001°53'12 1.2
2015-May-22 09:25N 50°19' W 001°53'1518.1
2015-May-22 08:34N 50°34' W 001°52'9 9.2
2015-May-22 07:33N 50°42' W 001°59'0 0.0
2015-May-22 06:33N 50°42' W 001°59'0 0.0
2015-May-22 05:33N 50°42' W 001°59'0 0.0
2015-May-22 04:33N 50°42' W 001°59'0 0.0
2015-May-22 03:33N 50°42' W 001°59'0 0.0
2015-May-22 02:33N 50°42' W 001°59'0 0.0
2015-May-22 01:33N 50°42' W 001°59'0 0.0
2015-May-22 00:33N 50°42' W 001°59'0 0.0
2015-May-21 23:33N 50°42' W 001°59'0 0.0
2015-May-21 22:33N 50°42' W 001°59'0 0.0
2015-May-21 21:33N 50°42' W 001°59'0 0.1
2015-May-21 20:33N 50°42' W 001°59'1312.6
2015-May-21 19:34N 50°32' W 001°49'2 0.2
2015-May-21 08:32N 50°30' W 001°51'1413.8
2015-May-21 07:33N 50°42' W 001°59'0 0.3
2015-May-21 06:33N 50°42' W 001°59'2 1.6
2015-May-21 05:33N 50°42' W 001°57'1312.6
2015-May-21 04:33N 50°30' W 001°52'1 0.1
2015-May-20 08:34N 50°31' W 001°51'1312.8
2015-May-20 07:33N 50°42' W 001°59'0 0.0
2015-May-20 06:33N 50°42' W 001°59'2 1.6
2015-May-20 05:33N 50°42' W 001°57'1212.3
2015-May-20 04:33N 50°30' W 001°50'4 0.2
2015-May-19 08:33N 50°34' W 001°53'9 9.3
2015-May-19 07:33N 50°42' W 001°59'0 0.0
2015-May-19 06:33N 50°42' W 001°59'0 0.0
2015-May-19 05:33N 50°42' W 001°59'0 0.0
2015-May-19 04:33N 50°42' W 001°59'  
Track history (hours):
 
Tides and Currents Weather Stations Pressure Air Temp Water Temp Dewpoint Dewpoint Depression Visibility Wind Speed Wind Dir Waves Ship Positions

Barfleur

Operator: Brittany Ferries

Last reported at 2015-May-29 03:34 UTC. Time now 2015-May-29 04:17 UTC.
Position N 50°42' W 001°59'.

Length 158 m; draft 5 m.

Type: Passenger vessel. MMSI: 227289000.

Date/timePositionNaut miles runAvg speedWind from/ knotsBaromVisibWave heightAir tempDewpointWater temp
2015-May-29 03:34N 50°42' W 001°59'0 0.0
2015-May-29 02:34N 50°42' W 001°59'0 0.0
2015-May-29 01:34N 50°42' W 001°59'0 0.0
2015-May-29 00:34N 50°42' W 001°59'0 0.0
2015-May-28 23:33N 50°42' W 001°59'0 0.0
2015-May-28 22:34N 50°42' W 001°59'0 0.0
2015-May-28 21:33N 50°42' W 001°59'0 0.1
2015-May-28 20:33N 50°42' W 001°59'1211.9
2015-May-28 19:34N 50°32' W 001°51'3 0.2
2015-May-28 08:30N 50°30' W 001°53'1313.8
2015-May-28 07:33N 50°42' W 001°59'0 0.4
2015-May-28 06:33N 50°42' W 001°59'0 0.0
2015-May-28 05:33N 50°42' W 001°59'0 0.0
2015-May-28 04:33N 50°42' W 001°59'0 0.0
2015-May-28 03:33N 50°42' W 001°59'0 0.0
2015-May-28 02:34N 50°42' W 001°59'0 0.0
2015-May-28 01:33N 50°42' W 001°59'0 0.0
2015-May-28 00:33N 50°42' W 001°59'0 0.0
2015-May-27 23:33N 50°42' W 001°59'0 0.0
2015-May-27 22:33N 50°42' W 001°59'0 0.0
2015-May-27 21:34N 50°42' W 001°59'0 0.1
2015-May-27 20:33N 50°42' W 001°59'1111.2
2015-May-27 19:33N 50°33' W 001°50'49 5.9
2015-May-27 11:07N 49°44' W 001°36'1716.8
2015-May-27 10:06N 50°01' W 001°43'3218.4
2015-May-27 08:21N 50°32' W 001°52'1113.7
2015-May-27 07:33N 50°42' W 001°59'0 0.4
2015-May-27 06:33N 50°42' W 001°59'0 0.0
2015-May-27 05:33N 50°42' W 001°59'0 0.0
2015-May-27 04:33N 50°42' W 001°59'0 0.0
2015-May-27 03:33N 50°42' W 001°59'0 0.0
2015-May-27 02:33N 50°42' W 001°59'0 0.0
2015-May-27 01:33N 50°42' W 001°59'0 0.0
2015-May-27 00:33N 50°42' W 001°59'0 0.0
2015-May-26 23:33N 50°42' W 001°59'0 0.0
2015-May-26 22:33N 50°42' W 001°59'0 0.0
2015-May-26 21:33N 50°42' W 001°59'2 1.8
2015-May-26 20:33N 50°41' W 001°57'1615.9
2015-May-26 19:33N 50°26' W 001°50'3 0.3
2015-May-26 08:31N 50°29' W 001°51'1414.5
2015-May-26 07:34N 50°42' W 001°58'1 1.2
2015-May-26 06:34N 50°42' W 001°59'0 0.0
2015-May-26 05:34N 50°42' W 001°59'0 0.0
2015-May-26 04:33N 50°42' W 001°59'0 0.0
2015-May-26 03:34N 50°42' W 001°59'0 0.0
2015-May-26 02:33N 50°42' W 001°59'0 0.0
2015-May-26 01:34N 50°42' W 001°59'0 0.0
2015-May-26 00:34N 50°42' W 001°59'0 0.0
2015-May-25 23:34N 50°42' W 001°59'0 0.0
2015-May-25 22:34N 50°42' W 001°59'0 0.0
2015-May-25 21:34N 50°42' W 001°59'0 0.1
2015-May-25 20:34N 50°42' W 001°60'1211.6
2015-May-25 19:33N 50°32' W 001°50'2 0.2
2015-May-25 08:33N 50°33' W 001°53'1010.5
2015-May-25 07:33N 50°42' W 001°59'0 0.0
2015-May-25 06:33N 50°42' W 001°59'0 0.0
2015-May-25 05:33N 50°42' W 001°59'0 0.0
2015-May-25 04:33N 50°42' W 001°59'0 0.0
2015-May-25 03:33N 50°42' W 001°59'0 0.0
2015-May-25 02:33N 50°42' W 001°59'0 0.0
2015-May-25 01:33N 50°42' W 001°59'0 0.0
2015-May-25 00:33N 50°42' W 001°59'0 0.0
2015-May-24 23:33N 50°42' W 001°59'0 0.0
2015-May-24 22:33N 50°42' W 001°59'0 0.0
2015-May-24 21:33N 50°42' W 001°59'0 0.1
2015-May-24 20:33N 50°42' W 001°59'1111.3
2015-May-24 19:33N 50°32' W 001°51'21 2.1
2015-May-24 09:30N 50°12' W 001°49'1918.0
2015-May-24 08:25N 50°31' W 001°51'1214.1
2015-May-24 07:33N 50°42' W 001°58'1 0.9
2015-May-24 06:34N 50°42' W 001°59'0 0.0
2015-May-24 05:34N 50°42' W 001°59'0 0.0
2015-May-24 04:33N 50°42' W 001°59'0 0.0
2015-May-24 03:34N 50°42' W 001°59'0 0.0
2015-May-24 02:34N 50°42' W 001°59'0 0.0
2015-May-24 01:34N 50°42' W 001°59'0 0.0
2015-May-24 00:34N 50°42' W 001°59'0 0.0
2015-May-23 23:34N 50°42' W 001°59'0 0.0
2015-May-23 22:33N 50°42' W 001°59'0 0.0
2015-May-23 21:33N 50°42' W 001°59'0 0.0
2015-May-23 20:33N 50°42' W 001°59'1111.2
2015-May-23 19:33N 50°33' W 001°51'2518.9
2015-May-23 18:13N 50°08' W 001°47'27 2.8
2015-May-23 08:33N 50°34' W 001°53'9 9.5
2015-May-23 07:33N 50°42' W 001°59'0 0.0
2015-May-23 06:33N 50°42' W 001°59'0 0.0
2015-May-23 05:33N 50°42' W 001°59'0 0.0
2015-May-23 04:33N 50°42' W 001°59'0 0.0
2015-May-23 03:33N 50°42' W 001°59'0 0.0
2015-May-23 02:33N 50°42' W 001°59'0 0.0
2015-May-23 01:33N 50°42' W 001°59'0 0.0
2015-May-23 00:33N 50°42' W 001°59'0 0.0
2015-May-22 23:33N 50°42' W 001°59'0 0.0
2015-May-22 22:33N 50°42' W 001°59'0 0.0
2015-May-22 21:33N 50°42' W 001°59'0 0.0
2015-May-22 20:33N 50°42' W 001°60'1212.2
2015-May-22 19:33N 50°31' W 001°53'12 1.2
2015-May-22 09:25N 50°19' W 001°53'1518.1
2015-May-22 08:34N 50°34' W 001°52'9 9.2
2015-May-22 07:33N 50°42' W 001°59'0 0.0
2015-May-22 06:33N 50°42' W 001°59'0 0.0
2015-May-22 05:33N 50°42' W 001°59'0 0.0
2015-May-22 04:33N 50°42' W 001°59'0 0.0
2015-May-22 03:33N 50°42' W 001°59'0 0.0
2015-May-22 02:33N 50°42' W 001°59'0 0.0
2015-May-22 01:33N 50°42' W 001°59'0 0.0
2015-May-22 00:33N 50°42' W 001°59'0 0.0
2015-May-21 23:33N 50°42' W 001°59'0 0.0
2015-May-21 22:33N 50°42' W 001°59'0 0.0
2015-May-21 21:33N 50°42' W 001°59'0 0.1
2015-May-21 20:33N 50°42' W 001°59'1312.6
2015-May-21 19:34N 50°32' W 001°49'2 0.2
2015-May-21 08:32N 50°30' W 001°51'1413.8
2015-May-21 07:33N 50°42' W 001°59'0 0.3
2015-May-21 06:33N 50°42' W 001°59'2 1.6
2015-May-21 05:33N 50°42' W 001°57'1312.6
2015-May-21 04:33N 50°30' W 001°52'1 0.1
2015-May-20 08:34N 50°31' W 001°51'1312.8
2015-May-20 07:33N 50°42' W 001°59'0 0.0
2015-May-20 06:33N 50°42' W 001°59'2 1.6
2015-May-20 05:33N 50°42' W 001°57'1212.3
2015-May-20 04:33N 50°30' W 001°50'4 0.2
2015-May-19 08:33N 50°34' W 001°53'9 9.3
2015-May-19 07:33N 50°42' W 001°59'0 0.0
2015-May-19 06:33N 50°42' W 001°59'0 0.0
2015-May-19 05:33N 50°42' W 001°59'0 0.0
2015-May-19 04:33N 50°42' W 001°59'  

Dump ship's entire track history